createdAt,value
2022-12-25T00:00:20.704Z,10.33
2022-12-25T00:01:16.968Z,10.34
2022-12-25T00:02:15.947Z,10.34
2022-12-25T00:03:15.986Z,10.36
2022-12-25T00:04:15.951Z,10.39
2022-12-25T00:05:15.837Z,10.42
2022-12-25T00:06:15.842Z,10.42
2022-12-25T00:07:15.937Z,10.40
2022-12-25T00:08:15.795Z,10.42
2022-12-25T00:09:15.812Z,10.40
2022-12-25T00:10:15.839Z,10.40
2022-12-25T00:11:15.752Z,10.42
2022-12-25T00:12:15.745Z,10.43
2022-12-25T00:13:15.811Z,10.43
2022-12-25T00:14:15.725Z,10.43
2022-12-25T00:15:15.703Z,10.44
2022-12-25T00:16:15.838Z,10.44
2022-12-25T00:17:15.662Z,10.46
2022-12-25T00:18:15.643Z,10.46
2022-12-25T00:19:15.758Z,10.46
2022-12-25T00:20:15.622Z,10.51
2022-12-25T00:21:15.639Z,10.52
2022-12-25T00:22:15.611Z,10.52
2022-12-25T00:23:15.625Z,10.55
2022-12-25T00:24:15.585Z,10.55
2022-12-25T00:25:15.893Z,10.55
2022-12-25T00:26:15.547Z,10.55
2022-12-25T00:27:15.542Z,10.55
2022-12-25T00:28:15.527Z,10.55
2022-12-25T00:29:15.503Z,10.53
2022-12-25T00:30:15.513Z,10.55
2022-12-25T00:31:15.603Z,10.53
2022-12-25T00:32:15.484Z,10.55
2022-12-25T00:33:15.460Z,10.55
2022-12-25T00:34:15.447Z,10.55
2022-12-25T00:35:15.433Z,10.55
2022-12-25T00:36:15.455Z,10.55
2022-12-25T00:37:15.387Z,10.55
2022-12-25T00:38:16.062Z,10.53
2022-12-25T00:39:15.387Z,10.55
2022-12-25T00:40:15.382Z,10.56
2022-12-25T00:41:15.369Z,10.56
2022-12-25T00:42:15.325Z,10.55
2022-12-25T00:43:15.312Z,10.55
2022-12-25T00:44:15.353Z,10.56
2022-12-25T00:45:16.057Z,10.59
2022-12-25T00:46:15.450Z,10.60
2022-12-25T00:47:15.362Z,10.60
2022-12-25T00:48:15.242Z,10.60
2022-12-25T00:49:15.250Z,10.62
2022-12-25T00:50:15.260Z,10.62
2022-12-25T00:51:15.191Z,10.63
2022-12-25T00:52:15.203Z,10.63
2022-12-25T00:53:15.195Z,10.63
2022-12-25T00:54:15.220Z,10.62
2022-12-25T00:55:15.177Z,10.63
2022-12-25T00:56:15.203Z,10.63
2022-12-25T00:57:15.151Z,10.63
2022-12-25T00:58:15.166Z,10.66
2022-12-25T00:59:19.533Z,10.65
2022-12-25T01:00:15.094Z,10.66
2022-12-25T01:01:15.277Z,10.68
2022-12-25T01:02:15.306Z,10.66
2022-12-25T01:03:15.110Z,10.65
2022-12-25T01:04:15.034Z,10.65
2022-12-25T01:05:15.063Z,10.63
2022-12-25T01:06:14.981Z,10.63
2022-12-25T01:07:15.002Z,10.62
2022-12-25T01:08:15.012Z,10.62
2022-12-25T01:09:14.953Z,10.60
2022-12-25T01:10:14.975Z,10.60
2022-12-25T01:11:14.957Z,10.63
2022-12-25T01:12:14.932Z,10.63
2022-12-25T01:13:14.936Z,10.63
2022-12-25T01:14:14.883Z,10.62
2022-12-25T01:15:15.182Z,10.63
2022-12-25T01:16:14.957Z,10.62
2022-12-25T01:17:14.851Z,10.60
2022-12-25T01:18:15.068Z,10.59
2022-12-25T01:19:14.857Z,10.59
2022-12-25T01:20:22.308Z,10.58
2022-12-25T01:21:21.798Z,10.56
2022-12-25T01:22:22.368Z,10.58
2022-12-25T01:23:14.783Z,10.58
2022-12-25T01:24:14.770Z,10.59
2022-12-25T01:25:14.923Z,10.59
2022-12-25T01:26:14.755Z,10.59
2022-12-25T01:27:25.979Z,10.60
2022-12-25T01:28:15.695Z,10.59
2022-12-25T01:29:14.695Z,10.60
2022-12-25T01:30:14.692Z,10.60
2022-12-25T01:31:15.022Z,10.63
2022-12-25T01:32:14.732Z,10.63
2022-12-25T01:33:14.652Z,10.65
2022-12-25T01:34:14.615Z,10.65
2022-12-25T01:35:19.623Z,10.66
2022-12-25T01:36:15.604Z,10.68
2022-12-25T01:37:14.572Z,10.66
2022-12-25T01:38:14.577Z,10.65
2022-12-25T01:39:14.547Z,10.65
2022-12-25T01:40:14.652Z,10.65
2022-12-25T01:41:14.539Z,10.65
2022-12-25T01:42:14.540Z,10.63
2022-12-25T01:43:18.637Z,10.65
2022-12-25T01:44:14.543Z,10.65
2022-12-25T01:45:14.505Z,10.63
2022-12-25T01:46:14.518Z,10.62
2022-12-25T01:47:14.484Z,10.60
2022-12-25T01:48:14.433Z,10.59
2022-12-25T01:49:14.435Z,10.58
2022-12-25T01:50:14.392Z,10.56
2022-12-25T01:51:14.444Z,10.55
2022-12-25T01:52:17.491Z,10.55
2022-12-25T01:53:15.445Z,10.52
2022-12-25T01:54:14.362Z,10.51
2022-12-25T01:55:14.353Z,10.51
2022-12-25T01:56:14.318Z,10.46
2022-12-25T01:57:14.304Z,10.46
2022-12-25T01:58:14.314Z,10.46
2022-12-25T01:59:14.390Z,10.44
2022-12-25T02:00:14.309Z,10.44
2022-12-25T02:01:14.364Z,10.43
2022-12-25T02:02:14.427Z,10.42
2022-12-25T02:03:14.327Z,10.42
2022-12-25T02:04:14.400Z,10.42
2022-12-25T02:05:14.288Z,10.40
2022-12-25T02:06:14.210Z,10.43
2022-12-25T02:07:14.361Z,10.42
2022-12-25T02:08:14.188Z,10.42
2022-12-25T02:09:14.122Z,10.42
2022-12-25T02:10:14.109Z,10.42
2022-12-25T02:11:14.138Z,10.42
2022-12-25T02:12:14.110Z,10.40
2022-12-25T02:13:14.090Z,10.42
2022-12-25T02:14:14.079Z,10.42
2022-12-25T02:15:14.067Z,10.37
2022-12-25T02:16:14.217Z,10.36
2022-12-25T02:17:14.136Z,10.34
2022-12-25T02:18:14.059Z,10.33
2022-12-25T02:19:14.013Z,10.33
2022-12-25T02:20:14.002Z,10.34
2022-12-25T02:21:13.963Z,10.33
2022-12-25T02:22:13.953Z,10.34
2022-12-25T02:23:14.008Z,10.36
2022-12-25T02:24:13.923Z,10.36
2022-12-25T02:25:13.923Z,10.36
2022-12-25T02:26:13.910Z,10.36
2022-12-25T02:27:13.883Z,10.34
2022-12-25T02:28:13.963Z,10.36
2022-12-25T02:29:13.975Z,10.36
2022-12-25T02:30:13.898Z,10.36
2022-12-25T02:31:13.824Z,10.34
2022-12-25T02:32:13.909Z,10.34
2022-12-25T02:33:13.841Z,10.34
2022-12-25T02:34:13.839Z,10.34
2022-12-25T02:35:13.895Z,10.36
2022-12-25T02:36:13.752Z,10.36
2022-12-25T02:37:13.745Z,10.36
2022-12-25T02:38:13.743Z,10.34
2022-12-25T02:39:13.756Z,10.36
2022-12-25T02:40:13.731Z,10.34
2022-12-25T02:41:13.725Z,10.36
2022-12-25T02:42:13.685Z,10.34
2022-12-25T02:43:13.667Z,10.33
2022-12-25T02:44:13.653Z,10.33
2022-12-25T02:45:13.633Z,10.32
2022-12-25T02:46:13.655Z,10.30
2022-12-25T02:47:13.649Z,10.25
2022-12-25T02:48:13.604Z,10.25
2022-12-25T02:49:13.582Z,10.24
2022-12-25T02:50:13.572Z,10.22
2022-12-25T02:51:13.568Z,10.21
2022-12-25T02:52:13.554Z,10.21
2022-12-25T02:53:13.547Z,10.19
2022-12-25T02:54:13.530Z,10.19
2022-12-25T02:55:13.566Z,10.19
2022-12-25T02:56:13.502Z,10.21
2022-12-25T02:57:13.472Z,10.24
2022-12-25T02:58:13.453Z,10.25
2022-12-25T02:59:13.453Z,10.26
2022-12-25T03:00:13.431Z,10.26
2022-12-25T03:01:13.501Z,10.28
2022-12-25T03:02:13.514Z,10.28
2022-12-25T03:03:13.463Z,10.30
2022-12-25T03:04:13.371Z,10.30
2022-12-25T03:05:13.353Z,10.32
2022-12-25T03:06:13.364Z,10.33
2022-12-25T03:07:13.356Z,10.33
2022-12-25T03:08:13.365Z,10.32
2022-12-25T03:09:13.311Z,10.33
2022-12-25T03:10:13.312Z,10.34
2022-12-25T03:11:13.295Z,10.33
2022-12-25T03:12:13.302Z,10.33
2022-12-25T03:13:13.272Z,10.33
2022-12-25T03:14:13.263Z,10.32
2022-12-25T03:15:13.221Z,10.32
2022-12-25T03:16:13.298Z,10.32
2022-12-25T03:17:13.218Z,10.30
2022-12-25T03:18:13.186Z,10.32
2022-12-25T03:19:13.209Z,10.32
2022-12-25T03:20:13.203Z,10.30
2022-12-25T03:21:13.152Z,10.28
2022-12-25T03:22:13.137Z,10.26
2022-12-25T03:23:13.114Z,10.25
2022-12-25T03:24:13.131Z,10.25
2022-12-25T03:25:13.103Z,10.25
2022-12-25T03:26:13.113Z,10.24
2022-12-25T03:27:13.105Z,10.25
2022-12-25T03:28:13.054Z,10.24
2022-12-25T03:29:13.059Z,10.22
2022-12-25T03:30:13.070Z,10.21
2022-12-25T03:31:13.207Z,10.21
2022-12-25T03:32:13.055Z,10.21
2022-12-25T03:33:37.171Z,10.21
2022-12-25T03:34:14.025Z,10.21
2022-12-25T03:35:13.045Z,10.19
2022-12-25T03:36:12.973Z,10.18
2022-12-25T03:37:12.983Z,10.19
2022-12-25T03:38:12.985Z,10.18
2022-12-25T03:39:12.930Z,10.18
2022-12-25T03:40:12.906Z,10.18
2022-12-25T03:41:12.882Z,10.17
2022-12-25T03:42:12.878Z,10.18
2022-12-25T03:43:12.847Z,10.17
2022-12-25T03:44:12.910Z,10.15
2022-12-25T03:45:12.858Z,10.17
2022-12-25T03:46:12.907Z,10.14
2022-12-25T03:47:12.877Z,10.14
2022-12-25T03:48:12.846Z,10.14
2022-12-25T03:49:12.777Z,10.12
2022-12-25T03:50:12.786Z,10.12
2022-12-25T03:51:12.813Z,10.14
2022-12-25T03:52:12.761Z,10.14
2022-12-25T03:53:12.728Z,10.15
2022-12-25T03:54:12.719Z,10.15
2022-12-25T03:55:12.723Z,10.14
2022-12-25T03:56:12.759Z,10.15
2022-12-25T03:57:12.668Z,10.14
2022-12-25T03:58:12.639Z,10.10
2022-12-25T03:59:16.488Z,10.09
2022-12-25T04:00:13.643Z,10.09
2022-12-25T04:01:12.661Z,10.04
2022-12-25T04:02:12.841Z,10.03
2022-12-25T04:03:12.609Z,10.03
2022-12-25T04:04:12.624Z,10.01
2022-12-25T04:05:12.634Z,10.00
2022-12-25T04:06:12.693Z,9.96
2022-12-25T04:07:12.553Z,9.96
2022-12-25T04:08:12.552Z,9.97
2022-12-25T04:09:12.511Z,9.94
2022-12-25T04:10:12.532Z,9.94
2022-12-25T04:11:12.568Z,9.93
2022-12-25T04:12:12.472Z,9.94
2022-12-25T04:13:12.465Z,9.93
2022-12-25T04:14:12.458Z,9.94
2022-12-25T04:15:12.462Z,9.97
2022-12-25T04:16:12.557Z,9.96
2022-12-25T04:17:12.455Z,9.96
2022-12-25T04:18:12.362Z,9.94
2022-12-25T04:19:12.383Z,9.94
2022-12-25T04:20:12.388Z,9.94
2022-12-25T04:21:12.385Z,9.93
2022-12-25T04:22:12.385Z,9.93
2022-12-25T04:23:12.393Z,9.94
2022-12-25T04:24:12.313Z,9.94
2022-12-25T04:25:12.304Z,9.94
2022-12-25T04:26:12.311Z,9.94
2022-12-25T04:27:12.278Z,9.96
2022-12-25T04:28:12.458Z,9.96
2022-12-25T04:29:12.230Z,9.96
2022-12-25T04:30:12.251Z,9.96
2022-12-25T04:31:12.260Z,9.96
2022-12-25T04:32:12.268Z,9.96
2022-12-25T04:33:12.212Z,9.97
2022-12-25T04:34:12.211Z,9.99
2022-12-25T04:35:12.212Z,10.00
2022-12-25T04:36:12.144Z,10.00
2022-12-25T04:37:12.108Z,10.00
2022-12-25T04:38:12.213Z,10.00
2022-12-25T04:39:12.110Z,10.00
2022-12-25T04:40:12.133Z,10.00
2022-12-25T04:41:12.079Z,9.97
2022-12-25T04:42:12.175Z,9.99
2022-12-25T04:43:12.069Z,9.99
2022-12-25T04:44:12.126Z,9.99
2022-12-25T04:45:12.025Z,9.97
2022-12-25T04:46:12.026Z,9.97
2022-12-25T04:47:12.026Z,9.96
2022-12-25T04:48:12.015Z,9.97
2022-12-25T04:49:11.952Z,9.96
2022-12-25T04:50:11.984Z,9.97
2022-12-25T04:51:11.943Z,9.96
2022-12-25T04:52:11.989Z,9.97
2022-12-25T04:53:11.901Z,9.97
2022-12-25T04:54:11.883Z,9.96
2022-12-25T04:55:11.884Z,9.96
2022-12-25T04:56:11.907Z,9.96
2022-12-25T04:57:11.893Z,9.96
2022-12-25T04:58:11.861Z,9.96
2022-12-25T04:59:11.826Z,9.96
2022-12-25T05:00:11.815Z,9.97
2022-12-25T05:01:11.813Z,9.97
2022-12-25T05:02:11.920Z,9.99
2022-12-25T05:03:11.902Z,9.97
2022-12-25T05:04:11.761Z,9.97
2022-12-25T05:05:11.733Z,9.97
2022-12-25T05:06:11.775Z,9.97
2022-12-25T05:07:11.787Z,9.99
2022-12-25T05:08:11.734Z,10.00
2022-12-25T05:09:11.716Z,10.00
2022-12-25T05:10:11.704Z,9.99
2022-12-25T05:11:11.747Z,10.00
2022-12-25T05:12:11.684Z,10.01
2022-12-25T05:13:11.639Z,10.01
2022-12-25T05:14:11.660Z,10.01
2022-12-25T05:15:11.623Z,10.01
2022-12-25T05:16:11.683Z,10.04
2022-12-25T05:17:11.600Z,10.03
2022-12-25T05:18:12.590Z,10.04
2022-12-25T05:19:11.655Z,10.06
2022-12-25T05:20:11.552Z,10.06
2022-12-25T05:21:11.561Z,10.04
2022-12-25T05:22:11.513Z,10.03
2022-12-25T05:23:11.515Z,10.04
2022-12-25T05:24:11.513Z,10.04
2022-12-25T05:25:11.485Z,10.04
2022-12-25T05:26:11.483Z,10.04
2022-12-25T05:27:11.449Z,10.06
2022-12-25T05:28:11.429Z,10.06
2022-12-25T05:29:11.418Z,10.06
2022-12-25T05:30:11.607Z,10.06
2022-12-25T05:31:11.475Z,10.06
2022-12-25T05:32:11.429Z,10.07
2022-12-25T05:33:11.371Z,10.06
2022-12-25T05:34:11.350Z,10.07
2022-12-25T05:35:11.348Z,10.07
2022-12-25T05:36:11.381Z,10.07
2022-12-25T05:37:11.340Z,10.06
2022-12-25T05:38:11.328Z,10.07
2022-12-25T05:39:11.376Z,10.04
2022-12-25T05:40:11.323Z,10.04
2022-12-25T05:41:11.318Z,10.03
2022-12-25T05:42:11.261Z,10.01
2022-12-25T05:43:11.357Z,10.01
2022-12-25T05:44:11.250Z,10.00
2022-12-25T05:45:11.309Z,9.99
2022-12-25T05:46:11.278Z,9.96
2022-12-25T05:47:11.231Z,9.94
2022-12-25T05:48:11.210Z,9.91
2022-12-25T05:49:11.172Z,9.89
2022-12-25T05:50:11.171Z,9.89
2022-12-25T05:51:11.126Z,9.88
2022-12-25T05:52:11.144Z,9.85
2022-12-25T05:53:11.155Z,9.83
2022-12-25T05:54:11.152Z,9.81
2022-12-25T05:55:11.101Z,9.82
2022-12-25T05:56:11.085Z,9.81
2022-12-25T05:57:11.062Z,9.78
2022-12-25T05:58:11.067Z,9.75
2022-12-25T05:59:11.126Z,9.70
2022-12-25T06:00:11.076Z,9.67
2022-12-25T06:01:11.035Z,9.64
2022-12-25T06:02:11.132Z,9.61
2022-12-25T06:03:11.115Z,9.56
2022-12-25T06:04:12.928Z,9.56
2022-12-25T06:05:11.161Z,9.52
2022-12-25T06:06:10.981Z,9.49
2022-12-25T06:07:10.928Z,9.49
2022-12-25T06:08:10.923Z,9.49
2022-12-25T06:09:10.949Z,9.50
2022-12-25T06:10:10.931Z,9.53
2022-12-25T06:11:10.905Z,9.56
2022-12-25T06:12:10.914Z,9.57
2022-12-25T06:13:10.939Z,9.60
2022-12-25T06:14:10.859Z,9.60
2022-12-25T06:15:10.847Z,9.60
2022-12-25T06:16:10.881Z,9.60
2022-12-25T06:17:10.855Z,9.61
2022-12-25T06:18:10.775Z,9.63
2022-12-25T06:19:10.760Z,9.63
2022-12-25T06:20:10.756Z,9.61
2022-12-25T06:21:10.727Z,9.61
2022-12-25T06:22:10.769Z,9.63
2022-12-25T06:23:10.762Z,9.63
2022-12-25T06:24:13.440Z,9.61
2022-12-25T06:25:11.693Z,9.63
2022-12-25T06:26:10.663Z,9.63
2022-12-25T06:27:10.691Z,9.63
2022-12-25T06:28:10.628Z,9.63
2022-12-25T06:29:10.725Z,9.64
2022-12-25T06:30:10.637Z,9.64
2022-12-25T06:31:10.668Z,9.66
2022-12-25T06:32:10.598Z,9.67
2022-12-25T06:33:10.573Z,9.67
2022-12-25T06:34:10.576Z,9.68
2022-12-25T06:35:10.578Z,9.70
2022-12-25T06:36:10.551Z,9.71
2022-12-25T06:37:10.570Z,9.70
2022-12-25T06:38:10.559Z,9.73
2022-12-25T06:39:10.525Z,9.75
2022-12-25T06:40:10.487Z,9.73
2022-12-25T06:41:10.619Z,9.73
2022-12-25T06:42:10.450Z,9.71
2022-12-25T06:43:10.475Z,9.67
2022-12-25T06:44:10.448Z,9.61
2022-12-25T06:45:10.407Z,9.56
2022-12-25T06:46:10.490Z,9.49
2022-12-25T06:47:10.412Z,9.46
2022-12-25T06:48:10.415Z,9.43
2022-12-25T06:49:11.334Z,9.38
2022-12-25T06:50:10.374Z,9.38
2022-12-25T06:51:10.363Z,9.39
2022-12-25T06:52:10.338Z,9.40
2022-12-25T06:53:10.454Z,9.40
2022-12-25T06:54:10.338Z,9.39
2022-12-25T06:55:10.291Z,9.39
2022-12-25T06:56:10.237Z,9.38
2022-12-25T06:57:10.267Z,9.35
2022-12-25T06:58:10.282Z,9.34
2022-12-25T06:59:10.216Z,9.30
2022-12-25T07:00:10.236Z,9.28
2022-12-25T07:01:10.257Z,9.27
2022-12-25T07:02:10.287Z,9.25
2022-12-25T07:03:10.265Z,9.23
2022-12-25T07:04:10.177Z,9.21
2022-12-25T07:05:10.220Z,9.20
2022-12-25T07:06:10.131Z,9.21
2022-12-25T07:07:10.130Z,9.18
2022-12-25T07:08:10.237Z,9.18
2022-12-25T07:09:10.226Z,9.16
2022-12-25T07:10:10.108Z,9.15
2022-12-25T07:11:10.097Z,9.13
2022-12-25T07:12:10.070Z,9.13
2022-12-25T07:13:10.063Z,9.10
2022-12-25T07:14:10.111Z,9.10
2022-12-25T07:15:10.036Z,9.09
2022-12-25T07:16:10.045Z,9.06
2022-12-25T07:17:09.978Z,9.05
2022-12-25T07:18:09.942Z,9.04
2022-12-25T07:19:10.607Z,9.02
2022-12-25T07:20:09.999Z,9.01
2022-12-25T07:21:09.972Z,9.01
2022-12-25T07:22:09.898Z,8.97
2022-12-25T07:23:09.952Z,8.99
2022-12-25T07:24:09.937Z,8.96
2022-12-25T07:25:09.888Z,8.94
2022-12-25T07:26:09.978Z,8.90
2022-12-25T07:27:09.939Z,8.90
2022-12-25T07:28:09.839Z,8.88
2022-12-25T07:29:09.852Z,8.87
2022-12-25T07:30:09.862Z,8.87
2022-12-25T07:31:09.840Z,8.84
2022-12-25T07:32:09.871Z,8.81
2022-12-25T07:33:09.784Z,8.79
2022-12-25T07:34:09.816Z,8.76
2022-12-25T07:35:09.868Z,8.76
2022-12-25T07:36:12.516Z,8.75
2022-12-25T07:37:09.700Z,8.75
2022-12-25T07:38:09.763Z,8.76
2022-12-25T07:39:09.781Z,8.73
2022-12-25T07:40:09.772Z,8.73
2022-12-25T07:41:09.801Z,8.72
2022-12-25T07:42:09.693Z,8.73
2022-12-25T07:43:09.627Z,8.72
2022-12-25T07:44:09.665Z,8.72
2022-12-25T07:45:09.703Z,8.73
2022-12-25T07:46:09.620Z,8.73
2022-12-25T07:47:09.622Z,8.73
2022-12-25T07:48:16.301Z,8.71
2022-12-25T07:49:10.559Z,8.71
2022-12-25T07:50:09.540Z,8.69
2022-12-25T07:51:09.518Z,8.71
2022-12-25T07:52:09.640Z,8.73
2022-12-25T07:53:09.504Z,8.78
2022-12-25T07:54:09.487Z,8.79
2022-12-25T07:55:09.521Z,8.81
2022-12-25T07:56:09.462Z,8.83
2022-12-25T07:57:09.443Z,8.81
2022-12-25T07:58:09.438Z,8.79
2022-12-25T07:59:09.410Z,8.81
2022-12-25T08:00:09.410Z,8.83
2022-12-25T08:01:09.579Z,8.84
2022-12-25T08:02:09.538Z,8.84
2022-12-25T08:03:09.605Z,8.83
2022-12-25T08:04:09.500Z,8.79
2022-12-25T08:05:09.353Z,8.76
2022-12-25T08:06:09.352Z,8.73
2022-12-25T08:07:09.347Z,8.72
2022-12-25T08:08:09.277Z,8.71
2022-12-25T08:09:09.313Z,8.73
2022-12-25T08:10:09.282Z,8.78
2022-12-25T08:11:09.289Z,8.79
2022-12-25T08:12:09.245Z,8.81
2022-12-25T08:13:14.418Z,8.83
2022-12-25T08:14:10.209Z,8.86
2022-12-25T08:15:09.337Z,8.87
2022-12-25T08:16:09.195Z,8.91
2022-12-25T08:17:09.235Z,8.94
2022-12-25T08:18:09.160Z,8.97
2022-12-25T08:19:09.200Z,9.02
2022-12-25T08:20:09.115Z,9.02
2022-12-25T08:21:09.201Z,9.06
2022-12-25T08:22:09.141Z,9.09
2022-12-25T08:23:09.195Z,9.09
2022-12-25T08:24:09.123Z,9.10
2022-12-25T08:25:09.091Z,9.13
2022-12-25T08:26:09.122Z,9.15
2022-12-25T08:27:09.180Z,9.15
2022-12-25T08:28:09.056Z,9.18
2022-12-25T08:29:09.027Z,9.21
2022-12-25T08:30:08.988Z,9.23
2022-12-25T08:31:09.053Z,9.24
2022-12-25T08:32:09.006Z,9.27
2022-12-25T08:33:08.978Z,9.32
2022-12-25T08:34:08.939Z,9.35
2022-12-25T08:35:09.092Z,9.39
2022-12-25T08:36:08.922Z,9.43
2022-12-25T08:37:08.951Z,9.45
2022-12-25T08:38:08.894Z,9.48
2022-12-25T08:39:08.927Z,9.48
2022-12-25T08:40:08.942Z,9.50
2022-12-25T08:41:08.853Z,9.53
2022-12-25T08:42:08.916Z,9.53
2022-12-25T08:43:08.846Z,9.50
2022-12-25T08:44:08.863Z,9.46
2022-12-25T08:45:08.799Z,9.45
2022-12-25T08:46:08.956Z,9.45
2022-12-25T08:47:08.792Z,9.45
2022-12-25T08:48:08.827Z,9.45
2022-12-25T08:49:08.897Z,9.46
2022-12-25T08:50:08.725Z,9.46
2022-12-25T08:51:08.707Z,9.49
2022-12-25T08:52:08.701Z,9.46
2022-12-25T08:53:08.684Z,9.43
2022-12-25T08:54:08.755Z,9.42
2022-12-25T08:55:08.724Z,9.45
2022-12-25T08:56:08.678Z,9.45
2022-12-25T08:57:08.657Z,9.45
2022-12-25T08:58:08.687Z,9.45
2022-12-25T08:59:08.713Z,9.45
2022-12-25T09:00:08.742Z,9.49
2022-12-25T09:01:08.805Z,9.50
2022-12-25T09:02:09.022Z,9.53
2022-12-25T09:03:08.717Z,9.57
2022-12-25T09:04:08.715Z,9.60
2022-12-25T09:05:08.529Z,9.63
2022-12-25T09:06:08.578Z,9.66
2022-12-25T09:07:08.624Z,9.71
2022-12-25T09:08:08.639Z,9.76
2022-12-25T09:09:08.627Z,9.81
2022-12-25T09:10:08.491Z,9.82
2022-12-25T09:11:08.676Z,9.82
2022-12-25T09:12:08.567Z,9.85
2022-12-25T09:13:08.439Z,9.88
2022-12-25T09:14:08.465Z,9.89
2022-12-25T09:15:08.388Z,9.93
2022-12-25T09:16:08.401Z,9.96
2022-12-25T09:17:08.468Z,9.99
2022-12-25T09:18:08.506Z,10.04
2022-12-25T09:19:08.413Z,10.09
2022-12-25T09:20:08.336Z,10.17
2022-12-25T09:21:08.368Z,10.24
2022-12-25T09:22:08.340Z,10.28
2022-12-25T09:23:13.571Z,10.32
2022-12-25T09:24:09.269Z,10.36
2022-12-25T09:25:08.235Z,10.39
2022-12-25T09:26:08.253Z,10.40
2022-12-25T09:27:08.344Z,10.42
2022-12-25T09:28:08.257Z,10.44
2022-12-25T09:29:08.264Z,10.47
2022-12-25T09:30:08.239Z,10.46
2022-12-25T09:31:08.202Z,10.51
2022-12-25T09:32:08.153Z,10.47
2022-12-25T09:33:08.133Z,10.47
2022-12-25T09:34:08.620Z,10.52
2022-12-25T09:35:08.180Z,10.53
2022-12-25T09:36:08.110Z,10.56
2022-12-25T09:37:08.062Z,10.60
2022-12-25T09:38:08.111Z,10.63
2022-12-25T09:39:08.035Z,10.66
2022-12-25T09:40:08.033Z,10.70
2022-12-25T09:41:08.012Z,10.76
2022-12-25T09:42:08.066Z,10.83
2022-12-25T09:43:08.025Z,10.89
2022-12-25T09:44:08.106Z,10.96
2022-12-25T09:45:08.062Z,11.01
2022-12-25T09:46:08.040Z,11.06
2022-12-25T09:47:07.938Z,11.06
2022-12-25T09:48:07.961Z,11.02
2022-12-25T09:49:07.925Z,10.99
2022-12-25T09:50:07.912Z,11.03
2022-12-25T09:51:07.897Z,11.06
2022-12-25T09:52:07.871Z,11.06
2022-12-25T09:53:07.851Z,11.07
2022-12-25T09:54:07.887Z,11.10
2022-12-25T09:55:07.811Z,11.11
2022-12-25T09:56:07.800Z,11.13
2022-12-25T09:57:07.787Z,11.20
2022-12-25T09:58:07.804Z,11.24
2022-12-25T09:59:07.818Z,11.29
2022-12-25T10:00:07.801Z,11.32
2022-12-25T10:01:07.785Z,11.38
2022-12-25T10:02:07.892Z,11.43
2022-12-25T10:03:07.941Z,11.49
2022-12-25T10:04:08.359Z,11.52
2022-12-25T10:05:07.773Z,11.54
2022-12-25T10:06:07.730Z,11.61
2022-12-25T10:07:07.668Z,11.62
2022-12-25T10:08:07.702Z,11.61
2022-12-25T10:09:07.676Z,11.64
2022-12-25T10:10:07.618Z,11.65
2022-12-25T10:11:07.662Z,11.65
2022-12-25T10:12:07.642Z,11.67
2022-12-25T10:13:07.625Z,11.67
2022-12-25T10:14:07.605Z,11.68
2022-12-25T10:15:07.696Z,11.67
2022-12-25T10:16:07.639Z,11.68
2022-12-25T10:17:07.515Z,11.71
2022-12-25T10:18:07.556Z,11.72
2022-12-25T10:19:07.508Z,11.71
2022-12-25T10:20:07.477Z,11.72
2022-12-25T10:21:12.801Z,11.74
2022-12-25T10:22:08.457Z,11.74
2022-12-25T10:23:07.429Z,11.72
2022-12-25T10:24:07.488Z,11.72
2022-12-25T10:25:07.410Z,11.74
2022-12-25T10:26:07.510Z,11.74
2022-12-25T10:27:07.404Z,11.77
2022-12-25T10:28:07.397Z,11.80
2022-12-25T10:29:07.436Z,11.82
2022-12-25T10:30:07.404Z,11.85
2022-12-25T10:31:07.401Z,11.87
2022-12-25T10:32:07.356Z,11.90
2022-12-25T10:33:09.885Z,11.94
2022-12-25T10:34:07.331Z,12.01
2022-12-25T10:35:07.279Z,12.02
2022-12-25T10:36:07.298Z,12.04
2022-12-25T10:37:07.245Z,12.09
2022-12-25T10:38:07.238Z,12.09
2022-12-25T10:39:07.257Z,12.12
2022-12-25T10:40:07.236Z,12.13
2022-12-25T10:41:07.197Z,12.15
2022-12-25T10:42:07.234Z,12.13
2022-12-25T10:43:07.168Z,12.15
2022-12-25T10:44:07.188Z,12.16
2022-12-25T10:45:07.167Z,12.19
2022-12-25T10:46:07.193Z,12.20
2022-12-25T10:47:07.133Z,12.21
2022-12-25T10:48:08.064Z,12.24
2022-12-25T10:49:07.136Z,12.29
2022-12-25T10:50:07.095Z,12.31
2022-12-25T10:51:07.056Z,12.37
2022-12-25T10:52:07.050Z,12.38
2022-12-25T10:53:07.048Z,12.41
2022-12-25T10:54:07.062Z,12.46
2022-12-25T10:55:07.009Z,12.56
2022-12-25T10:56:06.995Z,12.66
2022-12-25T10:57:06.974Z,12.75
2022-12-25T10:58:06.978Z,12.81
2022-12-25T10:59:06.957Z,12.85
2022-12-25T11:00:07.009Z,12.88
2022-12-25T11:01:06.926Z,12.93
2022-12-25T11:02:07.043Z,12.97
2022-12-25T11:03:07.023Z,13.00
2022-12-25T11:04:06.953Z,13.06
2022-12-25T11:05:06.879Z,13.11
2022-12-25T11:06:06.887Z,13.24
2022-12-25T11:07:06.833Z,13.33
2022-12-25T11:08:06.885Z,13.47
2022-12-25T11:09:06.845Z,13.54
2022-12-25T11:10:07.077Z,13.58
2022-12-25T11:11:06.920Z,13.65
2022-12-25T11:12:06.860Z,13.73
2022-12-25T11:13:06.925Z,13.79
2022-12-25T11:14:06.747Z,13.81
2022-12-25T11:15:06.777Z,13.87
2022-12-25T11:16:06.845Z,13.87
2022-12-25T11:17:06.927Z,13.89
2022-12-25T11:18:06.782Z,13.94
2022-12-25T11:19:06.761Z,13.98
2022-12-25T11:20:06.712Z,14.06
2022-12-25T11:21:06.667Z,14.10
2022-12-25T11:22:06.714Z,14.13
2022-12-25T11:23:06.713Z,14.16
2022-12-25T11:24:06.674Z,14.20
2022-12-25T11:25:06.661Z,14.24
2022-12-25T11:26:06.678Z,14.27
2022-12-25T11:27:06.605Z,14.28
2022-12-25T11:28:06.594Z,14.27
2022-12-25T11:29:06.669Z,14.27
2022-12-25T11:30:11.177Z,14.28
2022-12-25T11:31:07.533Z,14.28
2022-12-25T11:32:06.591Z,14.25
2022-12-25T11:33:06.493Z,14.27
2022-12-25T11:34:06.464Z,14.24
2022-12-25T11:35:06.494Z,14.25
2022-12-25T11:36:06.498Z,14.20
2022-12-25T11:37:06.550Z,14.20
2022-12-25T11:38:06.427Z,14.20
2022-12-25T11:39:06.453Z,14.21
2022-12-25T11:40:06.493Z,14.28
2022-12-25T11:41:06.579Z,14.34
2022-12-25T11:42:06.521Z,14.38
2022-12-25T11:43:08.281Z,14.42
2022-12-25T11:44:06.507Z,14.43
2022-12-25T11:45:06.470Z,14.47
2022-12-25T11:46:45.558Z,14.47
2022-12-25T11:47:07.360Z,14.50
2022-12-25T11:48:06.327Z,14.52
2022-12-25T11:49:06.406Z,14.54
2022-12-25T11:50:06.279Z,14.60
2022-12-25T11:51:06.242Z,14.61
2022-12-25T11:52:06.237Z,14.62
2022-12-25T11:53:06.358Z,14.61
2022-12-25T11:54:06.272Z,14.61
2022-12-25T11:55:06.365Z,14.62
2022-12-25T11:56:06.211Z,14.64
2022-12-25T11:57:06.178Z,14.65
2022-12-25T11:58:06.150Z,14.65
2022-12-25T11:59:06.337Z,14.64
2022-12-25T12:00:06.195Z,14.64
2022-12-25T12:01:06.283Z,14.67
2022-12-25T12:02:06.273Z,14.71
2022-12-25T12:03:06.324Z,14.71
2022-12-25T12:04:06.139Z,14.72
2022-12-25T12:05:06.151Z,14.72
2022-12-25T12:06:06.125Z,14.74
2022-12-25T12:07:06.258Z,14.75
2022-12-25T12:08:06.067Z,14.83
2022-12-25T12:09:06.013Z,14.84
2022-12-25T12:10:06.087Z,14.83
2022-12-25T12:11:06.056Z,14.86
2022-12-25T12:12:05.977Z,14.90
2022-12-25T12:13:05.980Z,14.90
2022-12-25T12:14:05.958Z,14.93
2022-12-25T12:15:05.980Z,14.93
2022-12-25T12:16:06.038Z,14.95
2022-12-25T12:17:06.079Z,15.01
2022-12-25T12:18:05.919Z,15.01
2022-12-25T12:19:05.912Z,15.01
2022-12-25T12:20:05.879Z,15.02
2022-12-25T12:21:05.890Z,15.02
2022-12-25T12:22:05.938Z,15.03
2022-12-25T12:23:06.040Z,15.05
2022-12-25T12:24:05.914Z,15.05
2022-12-25T12:25:05.814Z,15.06
2022-12-25T12:26:05.782Z,15.06
2022-12-25T12:27:05.773Z,15.06
2022-12-25T12:28:06.063Z,15.02
2022-12-25T12:29:05.778Z,15.06
2022-12-25T12:30:05.784Z,15.09
2022-12-25T12:31:05.801Z,15.17
2022-12-25T12:32:05.763Z,15.23
2022-12-25T12:33:05.683Z,15.27
2022-12-25T12:34:05.731Z,15.26
2022-12-25T12:35:05.700Z,15.31
2022-12-25T12:36:05.641Z,15.28
2022-12-25T12:37:05.632Z,15.31
2022-12-25T12:38:05.700Z,15.35
2022-12-25T12:39:05.637Z,15.35
2022-12-25T12:40:05.705Z,15.35
2022-12-25T12:41:05.676Z,15.38
2022-12-25T12:42:05.717Z,15.38
2022-12-25T12:43:05.618Z,15.39
2022-12-25T12:44:05.646Z,15.41
2022-12-25T12:45:05.574Z,15.41
2022-12-25T12:46:05.730Z,15.36
2022-12-25T12:47:05.524Z,15.36
2022-12-25T12:48:05.500Z,15.38
2022-12-25T12:49:05.558Z,15.41
2022-12-25T12:50:05.506Z,15.38
2022-12-25T12:51:05.518Z,15.36
2022-12-25T12:52:05.433Z,15.35
2022-12-25T12:53:05.435Z,15.38
2022-12-25T12:54:05.382Z,15.42
2022-12-25T12:55:05.395Z,15.45
2022-12-25T12:56:05.350Z,15.46
2022-12-25T12:57:05.371Z,15.49
2022-12-25T12:58:05.333Z,15.49
2022-12-25T12:59:05.347Z,15.46
2022-12-25T13:00:10.231Z,15.48
2022-12-25T13:01:06.382Z,15.48